Time;durP1;ratioP1;P1;durP2;ratioP2;P2;SDS_P1;SDS_P2;PMS_P1;PMS_P2;Temp;Humidity;BMP_temperature;BMP_pressure;BME280_temperature;BME280_humidity;BME280_pressure;Samples;Min_cycle;Max_cycle;Signal;HPM_P1;HPM_P2
2020/12/21 00:00:14;;;;;;;9.93;4.17;;;9.40;89.00;;;;;;5014010;28;20598;-72
2020/12/21 00:02:41;;;;;;;6.90;3.67;;;9.50;89.10;;;;;;5013736;28;20448;-72
2020/12/21 00:05:07;;;;;;;6.63;2.77;;;9.40;88.80;;;;;;5014632;28;20549;-72
2020/12/21 00:07:34;;;;;;;10.53;3.40;;;9.40;89.00;;;;;;5013397;28;20443;-72
2020/12/21 00:10:01;;;;;;;7.37;2.60;;;9.40;89.00;;;;;;5013614;28;20448;-72
2020/12/21 00:12:27;;;;;;;7.53;2.17;;;9.40;89.10;;;;;;5013727;28;20498;-72
2020/12/21 00:14:53;;;;;;;11.50;3.07;;;9.40;89.30;;;;;;5013611;28;20811;-72
2020/12/21 00:17:19;;;;;;;6.13;2.43;;;9.30;89.30;;;;;;5013610;28;20451;-72
2020/12/21 00:19:46;;;;;;;11.20;2.60;;;9.40;89.50;;;;;;5013227;28;20933;-72
2020/12/21 00:22:13;;;;;;;7.33;2.20;;;9.30;89.30;;;;;;5014064;28;20471;-72
2020/12/21 00:24:39;;;;;;;7.27;2.70;;;9.30;89.30;;;;;;5017113;28;21055;-72
2020/12/21 00:27:05;;;;;;;6.50;2.40;;;9.30;89.50;;;;;;5017523;28;20466;-72
2020/12/21 00:29:31;;;;;;;7.80;4.07;;;9.20;89.40;;;;;;5017122;28;20447;-72
2020/12/21 00:31:57;;;;;;;4.43;2.40;;;9.20;89.70;;;;;;5017323;28;20467;-72
2020/12/21 00:34:23;;;;;;;9.07;3.03;;;9.20;90.00;;;;;;5017328;28;20439;-72
2020/12/21 00:36:52;;;;;;;8.90;2.80;;;9.20;90.00;;;;;;5017006;28;20459;-72
2020/12/21 00:39:19;;;;;;;7.30;2.90;;;9.20;90.00;;;;;;5017276;28;20459;-72
2020/12/21 00:41:45;;;;;;;6.37;2.90;;;9.20;90.00;;;;;;5017126;28;20471;-72
2020/12/21 00:44:12;;;;;;;7.13;2.77;;;9.20;90.10;;;;;;5017045;28;20545;-72
2020/12/21 00:46:38;;;;;;;8.37;2.43;;;9.20;90.10;;;;;;5017133;28;20447;-72
2020/12/21 00:49:06;;;;;;;10.13;2.87;;;9.20;90.10;;;;;;5017140;28;20454;-72
2020/12/21 00:51:33;;;;;;;10.80;3.00;;;9.20;90.00;;;;;;5016945;28;20459;-72
2020/12/21 00:54:00;;;;;;;7.03;3.00;;;9.20;90.00;;;;;;5016981;28;20443;-72
2020/12/21 00:56:27;;;;;;;5.20;2.33;;;9.20;90.00;;;;;;5016990;28;20444;-72
2020/12/21 00:58:53;;;;;;;8.03;2.90;;;9.20;89.70;;;;;;5016883;28;20448;-72
2020/12/21 01:01:21;;;;;;;8.30;2.77;;;9.20;89.70;;;;;;5016763;28;20825;-72
2020/12/21 01:03:47;;;;;;;6.70;3.20;;;9.20;89.70;;;;;;5016502;28;21001;-72
2020/12/21 01:06:14;;;;;;;11.43;3.40;;;9.20;89.90;;;;;;5016762;28;20459;-73
2020/12/21 01:08:41;;;;;;;7.70;2.90;;;9.20;89.90;;;;;;5016703;28;20450;-73
2020/12/21 01:11:12;;;;;;;9.37;3.40;;;9.20;89.90;;;;;;5016270;28;20467;-73
2020/12/21 01:13:39;;;;;;;9.77;3.20;;;9.10;89.90;;;;;;5016638;28;20821;-73
2020/12/21 01:16:05;;;;;;;7.20;3.10;;;9.10;90.00;;;;;;5016590;28;20447;-73
2020/12/21 01:18:31;;;;;;;9.97;2.77;;;9.10;90.10;;;;;;5016569;28;20447;-73
2020/12/21 01:20:58;;;;;;;6.47;2.50;;;9.10;90.10;;;;;;5016492;28;20833;-73
2020/12/21 01:23:24;;;;;;;6.50;2.60;;;9.00;90.10;;;;;;5016450;28;20905;-73
2020/12/21 01:25:50;;;;;;;12.00;4.73;;;9.00;90.10;;;;;;5016319;28;20487;-73
2020/12/21 01:28:17;;;;;;;6.00;2.80;;;9.00;90.20;;;;;;5016345;28;20451;-73
2020/12/21 01:30:44;;;;;;;5.83;2.73;;;9.00;90.20;;;;;;5016217;28;20471;-73
2020/12/21 01:33:10;;;;;;;7.83;2.57;;;9.00;90.20;;;;;;5015571;28;20936;-73
2020/12/21 01:35:36;;;;;;;6.10;3.17;;;9.00;90.20;;;;;;5016022;28;20455;-73
2020/12/21 01:38:03;;;;;;;10.93;3.27;;;9.00;90.10;;;;;;5015904;28;20794;-73
2020/12/21 01:40:29;;;;;;;9.37;2.90;;;9.00;90.20;;;;;;5016051;28;20533;-73
2020/12/21 01:42:55;;;;;;;8.40;3.03;;;9.00;90.10;;;;;;5015791;28;20428;-73
2020/12/21 01:45:22;;;;;;;8.70;3.60;;;8.90;90.20;;;;;;5016035;28;20487;-73
2020/12/21 01:47:49;;;;;;;9.17;2.87;;;8.90;90.20;;;;;;5015953;28;20447;-73
2020/12/21 01:50:15;;;;;;;8.23;2.70;;;8.90;90.20;;;;;;5015944;28;20471;-72
2020/12/21 01:52:42;;;;;;;12.47;2.90;;;8.90;90.20;;;;;;5015861;28;20451;-72
2020/12/21 01:55:09;;;;;;;4.73;2.80;;;8.90;90.20;;;;;;5015814;28;20446;-72
2020/12/21 01:57:35;;;;;;;6.47;3.00;;;8.90;90.20;;;;;;5015466;28;20964;-72
2020/12/21 02:00:04;;;;;;;11.63;3.03;;;8.90;90.20;;;;;;5015676;28;20448;-72
2020/12/21 02:02:31;;;;;;;5.07;2.63;;;8.90;90.20;;;;;;5015633;28;20454;-72
2020/12/21 02:04:57;;;;;;;7.80;2.27;;;8.80;90.10;;;;;;5015235;28;21007;-72
2020/12/21 02:07:26;;;;;;;4.90;2.43;;;8.80;90.10;;;;;;5015553;28;20447;-72
2020/12/21 02:09:56;;;;;;;5.87;2.80;;;8.80;90.10;;;;;;5015230;28;20893;-72
2020/12/21 02:12:22;;;;;;;13.80;2.87;;;8.80;90.10;;;;;;5015485;28;20518;-72
2020/12/21 02:14:48;;;;;;;6.40;2.10;;;8.80;90.10;;;;;;5015465;28;20455;-72
2020/12/21 02:17:15;;;;;;;5.00;2.57;;;8.80;90.10;;;;;;5015096;28;20502;-72
2020/12/21 02:19:42;;;;;;;7.30;2.87;;;8.80;90.20;;;;;;5015485;28;20475;-72
2020/12/21 02:22:11;;;;;;;5.50;2.73;;;8.80;90.30;;;;;;5015292;28;20467;-72
2020/12/21 02:24:38;;;;;;;5.50;1.83;;;8.80;90.30;;;;;;5015270;28;20474;-72
2020/12/21 02:27:05;;;;;;;8.43;2.80;;;8.80;90.30;;;;;;5014982;28;20938;-72
2020/12/21 02:29:31;;;;;;;13.60;2.63;;;8.80;90.20;;;;;;5014839;28;20957;-72
2020/12/21 02:31:58;;;;;;;7.50;2.63;;;8.80;90.30;;;;;;5015110;28;20467;-72
2020/12/21 02:34:26;;;;;;;7.73;2.37;;;8.80;90.20;;;;;;5015108;28;20443;-72
2020/12/21 02:36:53;;;;;;;7.60;3.07;;;8.80;90.30;;;;;;5014680;28;20478;-72
2020/12/21 02:39:21;;;;;;;5.60;1.93;;;8.80;90.40;;;;;;5014986;28;20443;-72
2020/12/21 02:41:47;;;;;;;6.00;1.93;;;8.80;90.40;;;;;;5014635;28;20988;-72
2020/12/21 02:44:13;;;;;;;11.73;2.07;;;8.80;90.40;;;;;;5014826;28;20491;-72
2020/12/21 02:46:42;;;;;;;6.87;1.70;;;8.80;90.50;;;;;;5014030;28;20436;-72
2020/12/21 02:49:08;;;;;;;9.73;1.80;;;8.80;90.40;;;;;;5014863;28;20451;-72
2020/12/21 02:51:35;;;;;;;8.70;2.27;;;8.80;90.40;;;;;;5014740;28;20467;-72
2020/12/21 02:54:01;;;;;;;5.90;2.43;;;8.80;90.40;;;;;;5014754;28;20494;-73
2020/12/21 02:56:28;;;;;;;8.63;1.93;;;8.80;90.30;;;;;;5014407;28;20455;-73
2020/12/21 02:58:54;;;;;;;6.73;2.17;;;8.80;90.30;;;;;;5014685;28;20447;-73
2020/12/21 03:01:20;;;;;;;5.43;2.00;;;8.80;90.10;;;;;;5014236;28;20471;-72
2020/12/21 03:03:46;;;;;;;6.70;2.43;;;8.80;90.00;;;;;;5014512;28;20451;-72
2020/12/21 03:06:13;;;;;;;4.80;2.50;;;8.80;89.90;;;;;;5014584;28;20454;-72
2020/12/21 03:08:39;;;;;;;4.40;1.87;;;8.80;90.00;;;;;;5014218;28;20956;-72
2020/12/21 03:11:08;;;;;;;4.80;1.90;;;8.80;89.80;;;;;;5014433;28;20470;-72
2020/12/21 03:13:36;;;;;;;7.40;1.93;;;8.70;89.60;;;;;;5014441;28;20454;-72
2020/12/21 03:16:02;;;;;;;9.07;2.03;;;8.70;89.50;;;;;;5014328;28;20454;-72
2020/12/21 03:18:28;;;;;;;7.63;1.97;;;8.70;89.90;;;;;;5014321;28;20447;-72
2020/12/21 03:20:54;;;;;;;4.60;2.00;;;8.70;90.00;;;;;;5013904;28;20467;-72
2020/12/21 03:23:20;;;;;;;5.37;1.63;;;8.70;90.00;;;;;;5014361;28;20451;-72
2020/12/21 03:25:46;;;;;;;8.50;2.13;;;8.70;90.10;;;;;;5014104;28;20486;-72
2020/12/21 03:28:13;;;;;;;5.60;1.60;;;8.70;90.10;;;;;;5013868;28;20819;-72
2020/12/21 03:30:40;;;;;;;6.97;1.90;;;8.70;90.00;;;;;;5013976;28;20475;-72
2020/12/21 03:33:06;;;;;;;7.27;1.93;;;8.70;90.00;;;;;;5014143;28;20438;-72
2020/12/21 03:35:32;;;;;;;4.43;1.73;;;8.70;90.00;;;;;;5013981;28;20505;-72
2020/12/21 03:37:58;;;;;;;6.77;2.10;;;8.70;90.00;;;;;;5014048;28;20423;-72
2020/12/21 03:40:24;;;;;;;5.40;1.33;;;8.70;90.00;;;;;;5014170;28;20482;-72
2020/12/21 03:42:51;;;;;;;5.60;1.93;;;8.70;89.80;;;;;;5014193;28;20455;-72
2020/12/21 03:45:17;;;;;;;8.13;1.90;;;8.60;89.00;;;;;;5013848;28;20479;-72
2020/12/21 03:47:44;;;;;;;8.93;1.97;;;8.60;89.50;;;;;;5013865;28;20494;-73
2020/12/21 03:50:10;;;;;;;5.80;1.70;;;8.60;89.50;;;;;;5013774;28;20448;-73
2020/12/21 03:52:36;;;;;;;3.30;2.00;;;8.60;89.80;;;;;;5013851;28;20444;-73
2020/12/21 03:55:03;;;;;;;5.87;1.70;;;8.50;89.90;;;;;;5013504;28;20938;-73
2020/12/21 03:57:29;;;;;;;3.80;1.50;;;8.50;89.80;;;;;;5013406;28;20813;-73
2020/12/21 03:59:55;;;;;;;8.60;2.23;;;8.40;89.70;;;;;;5013693;28;20505;-72
2020/12/21 04:02:22;;;;;;;10.20;2.27;;;8.40;89.60;;;;;;5013386;28;20953;-72
2020/12/21 04:04:49;;;;;;;6.30;2.10;;;8.30;89.60;;;;;;5013613;28;20479;-72
2020/12/21 04:07:15;;;;;;;8.80;1.90;;;8.30;89.80;;;;;;5013381;28;20454;-72
2020/12/21 04:09:41;;;;;;;5.97;1.63;;;8.20;90.00;;;;;;5013677;28;20566;-72
2020/12/21 04:12:07;;;;;;;11.37;2.00;;;8.20;90.10;;;;;;5013536;28;20470;-72
2020/12/21 04:14:33;;;;;;;3.93;1.70;;;8.20;89.90;;;;;;5013361;28;20443;-72
2020/12/21 04:16:59;;;;;;;6.77;2.00;;;8.20;90.00;;;;;;5013598;28;20458;-72
2020/12/21 04:19:27;;;;;;;6.40;1.90;;;8.10;90.00;;;;;;5013581;28;20443;-72
2020/12/21 04:21:54;;;;;;;4.90;2.70;;;8.20;90.10;;;;;;5013465;28;20517;-72
2020/12/21 04:24:21;;;;;;;4.17;2.10;;;8.20;90.10;;;;;;5013399;28;20483;-72
2020/12/21 04:26:47;;;;;;;6.33;1.70;;;8.20;90.00;;;;;;5013479;28;20497;-72
2020/12/21 04:29:14;;;;;;;6.57;1.77;;;8.20;90.00;;;;;;5013471;28;20592;-72
2020/12/21 04:31:40;;;;;;;6.37;1.33;;;8.20;90.00;;;;;;5013363;28;20475;-72
2020/12/21 04:34:06;;;;;;;6.77;1.93;;;8.10;89.80;;;;;;5013963;28;20447;-72
2020/12/21 04:36:33;;;;;;;7.23;1.80;;;8.20;90.10;;;;;;5013115;28;20456;-72
2020/12/21 04:39:00;;;;;;;5.03;1.50;;;8.10;90.00;;;;;;5013449;28;20494;-73
2020/12/21 04:41:26;;;;;;;4.63;1.93;;;8.10;90.00;;;;;;5013317;28;20479;-72
2020/12/21 04:43:55;;;;;;;6.70;2.20;;;8.20;90.00;;;;;;5013387;28;20447;-72
2020/12/21 04:46:22;;;;;;;9.90;1.97;;;8.20;89.80;;;;;;5013346;28;20471;-72
2020/12/21 04:48:49;;;;;;;4.77;1.60;;;8.20;90.10;;;;;;5013286;28;20447;-72
2020/12/21 04:51:17;;;;;;;7.20;1.60;;;8.20;90.10;;;;;;5012813;28;21004;-72
2020/12/21 04:53:44;;;;;;;3.30;1.57;;;8.10;89.80;;;;;;5013372;28;20459;-72
2020/12/21 04:56:11;;;;;;;5.00;2.03;;;8.10;90.00;;;;;;5013196;28;20446;-72
2020/12/21 04:58:37;;;;;;;5.87;2.00;;;8.10;90.00;;;;;;5013174;28;20442;-72
2020/12/21 05:01:03;;;;;;;6.40;1.87;;;8.10;90.00;;;;;;5013173;28;20494;-72
2020/12/21 05:03:29;;;;;;;4.80;1.70;;;8.20;90.00;;;;;;5012868;28;20443;-72
2020/12/21 05:05:55;;;;;;;6.07;1.53;;;8.20;90.10;;;;;;5013067;28;20482;-72
2020/12/21 05:08:23;;;;;;;5.87;1.50;;;8.20;90.00;;;;;;5013870;28;20446;-72
2020/12/21 05:10:57;;;;;;;4.33;1.63;;;8.10;90.00;;;;;;5016311;28;21004;-72
2020/12/21 05:13:25;;;;;;;6.23;2.47;;;8.10;90.10;;;;;;5016664;28;20434;-72
2020/12/21 05:15:52;;;;;;;6.97;2.10;;;8.10;90.10;;;;;;5016614;28;20443;-72
2020/12/21 05:18:23;;;;;;;3.93;2.03;;;8.10;90.00;;;;;;5016587;28;20449;-72
2020/12/21 05:20:56;;;;;;;5.63;2.03;;;8.10;90.10;;;;;;5016160;28;20981;-72
2020/12/21 05:23:23;;;;;;;7.00;1.90;;;8.10;90.10;;;;;;5016182;28;20855;-72
2020/12/21 05:25:57;;;;;;;14.13;1.87;;;8.10;90.10;;;;;;5016355;28;20540;-72
2020/12/21 05:28:27;;;;;;;4.47;1.60;;;8.10;90.20;;;;;;5016467;28;20431;-72
2020/12/21 05:30:55;;;;;;;6.60;2.03;;;8.10;90.30;;;;;;5017113;28;20475;-72
2020/12/21 05:33:22;;;;;;;6.43;1.90;;;8.10;90.20;;;;;;5016280;28;20451;-72
2020/12/21 05:35:48;;;;;;;1.73;1.53;;;8.10;90.20;;;;;;5015992;28;20459;-72
2020/12/21 05:38:25;;;;;;;4.87;1.77;;;8.10;90.10;;;;;;5016185;28;20446;-73
2020/12/21 05:40:52;;;;;;;3.67;1.80;;;8.00;90.50;;;;;;5016082;28;20467;-73
2020/12/21 05:43:24;;;;;;;5.23;1.80;;;8.10;90.20;;;;;;5015724;28;20442;-73
2020/12/21 05:46:02;;;;;;;8.30;2.47;;;8.00;90.20;;;;;;5015969;28;20482;-72
2020/12/21 05:48:32;;;;;;;3.57;1.20;;;8.00;90.10;;;;;;5016029;28;20518;-72
2020/12/21 05:51:01;;;;;;;6.10;1.90;;;8.10;90.20;;;;;;5015893;28;20470;-72
2020/12/21 05:53:34;;;;;;;9.10;1.73;;;8.00;90.30;;;;;;5015906;28;20455;-72
2020/12/21 05:56:01;;;;;;;3.97;1.83;;;8.00;90.20;;;;;;5015779;28;20423;-72
2020/12/21 05:58:31;;;;;;;6.37;1.90;;;8.00;90.20;;;;;;5015931;28;20447;-72
2020/12/21 06:01:00;;;;;;;5.27;1.80;;;8.00;90.30;;;;;;5015766;28;20490;-72
2020/12/21 06:03:42;;;;;;;4.60;1.40;;;8.10;90.30;;;;;;5015781;28;20427;-72
2020/12/21 06:06:11;;;;;;;5.63;1.80;;;8.10;90.40;;;;;;5016123;28;20473;-72
2020/12/21 06:08:38;;;;;;;12.00;1.70;;;8.00;90.20;;;;;;5015327;28;20448;-72
2020/12/21 06:11:13;;;;;;;2.47;1.70;;;8.00;90.30;;;;;;5015493;28;20478;-72
2020/12/21 06:13:45;;;;;;;5.03;1.70;;;8.00;90.30;;;;;;5015505;28;20457;-72
2020/12/21 06:16:14;;;;;;;6.77;2.13;;;8.00;90.40;;;;;;5015313;28;21036;-73
2020/12/21 06:18:41;;;;;;;7.67;2.20;;;8.00;90.50;;;;;;5015463;28;20498;-73
2020/12/21 06:21:07;;;;;;;6.63;2.23;;;8.00;90.40;;;;;;5013963;28;20470;-73
2020/12/21 06:23:37;;;;;;;7.00;2.13;;;8.00;90.50;;;;;;5015273;28;20809;-73
2020/12/21 06:26:13;;;;;;;13.70;2.63;;;8.10;90.50;;;;;;5015254;28;20459;-73
2020/12/21 06:28:41;;;;;;;5.03;1.80;;;8.10;90.50;;;;;;5015233;28;20431;-73
2020/12/21 06:31:35;;;;;;;5.77;1.70;;;8.10;90.50;;;;;;5015840;28;20477;-73
2020/12/21 06:34:02;;;;;;;4.20;1.60;;;8.10;90.50;;;;;;5014889;28;20925;-73
2020/12/21 06:36:31;;;;;;;6.50;1.70;;;8.10;90.60;;;;;;5014867;28;20455;-73
2020/12/21 06:38:57;;;;;;;4.10;1.80;;;8.10;90.60;;;;;;5015045;28;20448;-73
2020/12/21 06:41:25;;;;;;;5.40;1.73;;;8.20;90.70;;;;;;5014993;28;20467;-73
2020/12/21 06:44:00;;;;;;;3.33;1.50;;;8.20;90.60;;;;;;5015002;28;20446;-73
2020/12/21 06:46:28;;;;;;;3.90;1.67;;;8.20;90.50;;;;;;5014457;28;20988;-73
2020/12/21 06:49:12;;;;;;;5.03;1.20;;;8.20;90.50;;;;;;5014809;28;20501;-73
2020/12/21 06:51:44;;;;;;;4.17;1.60;;;8.30;90.60;;;;;;5014491;28;21007;-73
2020/12/21 06:54:12;;;;;;;6.30;1.50;;;8.30;90.60;;;;;;5014792;28;20523;-73
2020/12/21 06:56:39;;;;;;;6.77;1.97;;;8.30;90.50;;;;;;5014781;28;20454;-73
2020/12/21 06:59:12;;;;;;;5.40;1.90;;;8.30;90.60;;;;;;5014711;28;20501;-73
2020/12/21 07:01:40;;;;;;;7.53;1.77;;;8.30;90.50;;;;;;5014524;28;20486;-73
2020/12/21 07:04:10;;;;;;;2.97;1.50;;;8.30;90.50;;;;;;5014670;28;20521;-73
2020/12/21 07:06:37;;;;;;;6.47;2.10;;;8.30;90.50;;;;;;5014664;28;20515;-73
2020/12/21 07:09:04;;;;;;;5.77;1.90;;;8.30;90.50;;;;;;5014251;28;20928;-73
2020/12/21 07:11:31;;;;;;;5.00;2.00;;;8.30;90.50;;;;;;5014475;28;20459;-73
2020/12/21 07:13:57;;;;;;;6.33;2.50;;;8.30;90.60;;;;;;5014142;28;20976;-73
2020/12/21 07:16:24;;;;;;;9.63;2.37;;;8.30;90.50;;;;;;5014462;28;20813;-73
2020/12/21 07:18:50;;;;;;;5.90;2.17;;;8.30;90.60;;;;;;5014455;28;20450;-73
2020/12/21 07:21:17;;;;;;;4.90;2.10;;;8.30;90.60;;;;;;5014232;28;20471;-73
2020/12/21 07:23:45;;;;;;;7.13;2.00;;;8.40;90.60;;;;;;5014350;28;20447;-73
2020/12/21 07:26:13;;;;;;;6.63;2.23;;;8.40;90.50;;;;;;5013905;28;21015;-73
2020/12/21 07:28:41;;;;;;;8.93;2.10;;;8.40;90.60;;;;;;5013930;28;20447;-73
2020/12/21 07:31:09;;;;;;;5.93;2.00;;;8.40;90.60;;;;;;5013907;28;20467;-73
2020/12/21 07:33:49;;;;;;;5.93;3.00;;;8.50;90.60;;;;;;5014090;28;20450;-73
2020/12/21 07:36:16;;;;;;;10.43;2.50;;;8.50;90.90;;;;;;5014034;28;20450;-73
2020/12/21 07:38:42;;;;;;;4.20;1.50;;;8.50;90.60;;;;;;5014117;28;20532;-73
2020/12/21 07:41:09;;;;;;;7.10;1.90;;;8.50;90.50;;;;;;5013943;28;20463;-73
2020/12/21 07:43:40;;;;;;;7.63;2.07;;;8.50;90.50;;;;;;5014020;28;20451;-73
2020/12/21 07:46:10;;;;;;;5.87;2.10;;;8.60;90.50;;;;;;5013977;28;20474;-73
2020/12/21 07:48:38;;;;;;;4.00;2.03;;;8.60;90.50;;;;;;5013959;28;20469;-73
2020/12/21 07:51:07;;;;;;;5.20;2.10;;;8.60;90.50;;;;;;5013467;28;20977;-73
2020/12/21 07:53:36;;;;;;;5.73;2.30;;;8.60;90.50;;;;;;5013912;28;20478;-73
2020/12/21 07:56:02;;;;;;;3.80;1.90;;;8.60;90.40;;;;;;5013917;28;20439;-73
2020/12/21 07:58:29;;;;;;;3.77;1.60;;;8.60;90.50;;;;;;5014660;28;20802;-73
2020/12/21 08:00:56;;;;;;;4.40;1.93;;;8.70;90.50;;;;;;5013706;28;20467;-73
2020/12/21 08:03:24;;;;;;;3.40;1.93;;;8.70;90.40;;;;;;5013768;28;20502;-73
2020/12/21 08:06:03;;;;;;;7.17;2.20;;;8.70;90.40;;;;;;5014185;28;20510;-73
2020/12/21 08:08:29;;;;;;;5.70;2.17;;;8.70;90.30;;;;;;5013852;28;20428;-73
2020/12/21 08:10:56;;;;;;;8.50;2.87;;;8.70;90.30;;;;;;5013400;28;20884;-73
2020/12/21 08:13:23;;;;;;;6.53;2.13;;;8.80;90.30;;;;;;5013556;28;20493;-73
2020/12/21 08:15:49;;;;;;;5.50;1.97;;;8.80;90.30;;;;;;5013755;28;20470;-73
2020/12/21 08:18:15;;;;;;;7.30;2.50;;;8.80;90.30;;;;;;5013711;28;20474;-73
2020/12/21 08:20:49;;;;;;;7.60;2.50;;;8.90;90.30;;;;;;5013608;28;20463;-73
2020/12/21 08:23:23;;;;;;;6.83;4.23;;;8.90;90.30;;;;;;5013334;28;20897;-73
2020/12/21 08:25:49;;;;;;;3.67;1.97;;;9.00;90.60;;;;;;5013566;28;20820;-73
2020/12/21 08:28:27;;;;;;;2.93;2.27;;;9.00;90.20;;;;;;5013789;28;20439;-73
2020/12/21 08:31:08;;;;;;;3.20;2.13;;;9.00;90.30;;;;;;5018389;28;20517;-73
2020/12/21 08:33:35;;;;;;;6.10;2.27;;;9.00;90.30;;;;;;5013637;28;20486;-73
2020/12/21 08:36:20;;;;;;;10.73;2.47;;;9.00;90.30;;;;;;5013318;28;20463;-73
2020/12/21 08:38:47;;;;;;;6.50;2.77;;;9.10;90.30;;;;;;5013449;28;20428;-73
2020/12/21 08:41:14;;;;;;;8.10;2.37;;;9.10;90.20;;;;;;5013739;28;20828;-73
2020/12/21 08:43:40;;;;;;;6.10;2.27;;;9.20;90.20;;;;;;5014688;28;20482;-73
2020/12/21 08:46:08;;;;;;;9.40;2.60;;;9.30;90.20;;;;;;5017190;28;20468;-73
2020/12/21 08:48:37;;;;;;;3.20;2.80;;;9.30;90.00;;;;;;5017112;28;20447;-73
2020/12/21 08:51:03;;;;;;;8.90;2.00;;;9.30;90.00;;;;;;5017026;28;20463;-73
2020/12/21 08:53:29;;;;;;;5.50;2.60;;;9.30;90.00;;;;;;5017563;28;20431;-73
2020/12/21 08:55:56;;;;;;;3.90;2.03;;;9.30;89.90;;;;;;5017627;28;20846;-73
2020/12/21 08:58:23;;;;;;;8.20;2.27;;;9.30;90.00;;;;;;5017317;28;20440;-73
2020/12/21 09:00:49;;;;;;;7.47;2.00;;;9.40;90.00;;;;;;5017064;28;20471;-73
2020/12/21 09:03:15;;;;;;;8.83;2.73;;;9.40;90.00;;;;;;5017087;28;20478;-73
2020/12/21 09:05:41;;;;;;;4.57;2.70;;;9.50;89.90;;;;;;5016790;28;20496;-73
2020/12/21 09:08:08;;;;;;;5.07;2.30;;;9.50;89.80;;;;;;5016851;28;20438;-73
2020/12/21 09:10:34;;;;;;;8.80;2.33;;;9.50;89.80;;;;;;5016709;28;20467;-73
2020/12/21 09:13:01;;;;;;;9.37;2.87;;;9.60;89.60;;;;;;5017378;28;20501;-73
2020/12/21 09:15:27;;;;;;;7.37;2.57;;;9.50;89.50;;;;;;5016739;28;20435;-73
2020/12/21 09:17:54;;;;;;;5.53;2.33;;;9.50;89.70;;;;;;5016297;28;20451;-73
2020/12/21 09:20:20;;;;;;;4.23;2.00;;;9.50;89.90;;;;;;5016523;28;20475;-73
2020/12/21 09:22:46;;;;;;;3.80;2.03;;;9.60;89.80;;;;;;5016373;28;20447;-73
2020/12/21 09:25:13;;;;;;;5.63;2.30;;;9.50;89.80;;;;;;5016510;28;20502;-73
2020/12/21 09:27:39;;;;;;;5.20;2.10;;;9.60;90.00;;;;;;5016225;28;20817;-73
2020/12/21 09:30:06;;;;;;;6.23;2.40;;;9.70;89.90;;;;;;5016113;28;20955;-73
2020/12/21 09:32:33;;;;;;;5.33;2.07;;;9.70;89.70;;;;;;5016387;28;20451;-73
2020/12/21 09:34:59;;;;;;;9.97;2.50;;;9.70;89.80;;;;;;5016407;28;20846;-73
2020/12/21 09:37:25;;;;;;;6.30;2.50;;;9.70;89.90;;;;;;5016039;28;20459;-73
2020/12/21 09:39:51;;;;;;;5.00;2.10;;;9.80;89.90;;;;;;5016249;28;20444;-73
2020/12/21 09:42:17;;;;;;;4.93;1.80;;;9.80;89.90;;;;;;5016196;28;20545;-73
2020/12/21 09:44:47;;;;;;;6.87;1.93;;;9.80;90.00;;;;;;5016061;28;20443;-73
2020/12/21 09:47:14;;;;;;;8.70;2.60;;;9.90;90.00;;;;;;5016115;28;20458;-73
2020/12/21 09:49:40;;;;;;;7.97;2.57;;;9.90;89.80;;;;;;5015785;28;20914;-73
2020/12/21 09:52:07;;;;;;;5.20;2.07;;;9.90;90.00;;;;;;5015941;28;20490;-73
2020/12/21 09:54:33;;;;;;;6.20;2.13;;;10.00;88.80;;;;;;5015648;28;20452;-73
2020/12/21 09:56:59;;;;;;;7.73;2.10;;;10.00;88.70;;;;;;5016007;28;20474;-73
2020/12/21 09:59:25;;;;;;;7.77;2.43;;;10.00;88.80;;;;;;5016094;28;20482;-73
2020/12/21 10:01:52;;;;;;;6.30;1.93;;;9.90;90.00;;;;;;5015760;28;20467;-73
2020/12/21 10:04:19;;;;;;;5.30;2.63;;;9.90;90.10;;;;;;5015856;28;20502;-73
2020/12/21 10:06:48;;;;;;;4.23;2.37;;;10.00;89.30;;;;;;5015632;28;20486;-73
2020/12/21 10:09:14;;;;;;;9.20;2.87;;;10.00;89.30;;;;;;5015729;28;20460;-73
2020/12/21 10:11:40;;;;;;;6.83;2.00;;;10.00;89.30;;;;;;5015576;28;20850;-73
2020/12/21 10:14:06;;;;;;;7.00;2.53;;;10.00;89.30;;;;;;5015543;28;20454;-73
2020/12/21 10:16:32;;;;;;;3.10;1.80;;;10.00;89.60;;;;;;5015349;28;20941;-73
2020/12/21 10:18:59;;;;;;;5.57;2.07;;;10.00;89.90;;;;;;5015571;28;20450;-73
2020/12/21 10:21:26;;;;;;;6.30;2.07;;;10.00;90.00;;;;;;5015372;28;20482;-73
2020/12/21 10:23:52;;;;;;;6.00;3.17;;;10.00;90.00;;;;;;5015462;28;20447;-73
2020/12/21 10:26:18;;;;;;;3.37;2.20;;;10.00;90.30;;;;;;5015253;28;20480;-73
2020/12/21 10:28:44;;;;;;;7.27;2.10;;;10.10;90.00;;;;;;5015392;28;20501;-73
2020/12/21 10:31:10;;;;;;;7.10;2.90;;;10.10;90.00;;;;;;5015141;28;20467;-73
2020/12/21 10:33:37;;;;;;;7.47;2.57;;;10.20;90.00;;;;;;5015203;28;20443;-73
2020/12/21 10:36:03;;;;;;;5.83;2.33;;;10.20;89.80;;;;;;5014951;28;20459;-73
2020/12/21 10:38:31;;;;;;;4.10;1.73;;;10.30;89.80;;;;;;5015220;28;20451;-73
2020/12/21 10:40:57;;;;;;;6.20;1.87;;;10.30;89.60;;;;;;5015123;28;20474;-73
2020/12/21 10:43:24;;;;;;;5.17;2.10;;;10.30;89.30;;;;;;5015146;28;20442;-74
2020/12/21 10:45:50;;;;;;;7.23;2.10;;;10.40;89.50;;;;;;5015068;28;20479;-73
2020/12/21 10:48:16;;;;;;;7.47;2.50;;;10.30;89.60;;;;;;5014957;28;20477;-73
2020/12/21 10:50:45;;;;;;;6.93;2.47;;;10.40;89.80;;;;;;5014895;28;20468;-73
2020/12/21 10:53:12;;;;;;;5.97;2.33;;;10.30;89.90;;;;;;5015083;28;20451;-73
2020/12/21 10:55:39;;;;;;;3.93;2.00;;;10.30;90.10;;;;;;5014903;28;20443;-73
2020/12/21 10:58:05;;;;;;;5.63;2.20;;;10.30;90.00;;;;;;5014540;28;20824;-73
2020/12/21 11:00:32;;;;;;;3.57;1.87;;;10.30;90.00;;;;;;5014443;28;20482;-73
2020/12/21 11:02:58;;;;;;;4.80;1.60;;;10.30;89.80;;;;;;5014836;28;20423;-73
2020/12/21 11:05:24;;;;;;;3.67;1.90;;;10.30;89.90;;;;;;5014137;28;20878;-73
2020/12/21 11:07:50;;;;;;;5.03;2.03;;;10.30;89.70;;;;;;5014172;28;20447;-73
2020/12/21 11:10:16;;;;;;;4.53;2.13;;;10.30;89.90;;;;;;5014480;28;20446;-73
2020/12/21 11:12:43;;;;;;;5.10;2.43;;;10.30;90.00;;;;;;5014238;28;20945;-73
2020/12/21 11:15:09;;;;;;;5.33;1.93;;;10.30;90.20;;;;;;5014451;28;20454;-73
2020/12/21 11:17:36;;;;;;;3.33;2.00;;;10.30;90.30;;;;;;5014498;28;20855;-73
2020/12/21 11:20:02;;;;;;;4.47;1.63;;;10.30;90.40;;;;;;5014331;28;20447;-73
2020/12/21 11:22:28;;;;;;;4.77;1.93;;;10.30;90.50;;;;;;5014389;28;20463;-73
2020/12/21 11:24:55;;;;;;;5.17;2.07;;;10.40;90.40;;;;;;5014274;28;20572;-73
2020/12/21 11:27:22;;;;;;;5.57;2.37;;;10.40;90.10;;;;;;5014006;28;20996;-73
2020/12/21 11:29:49;;;;;;;4.27;1.90;;;10.50;90.20;;;;;;5014335;28;20443;-73
2020/12/21 11:32:15;;;;;;;4.77;2.30;;;10.50;89.70;;;;;;5014115;28;20474;-73
2020/12/21 11:34:41;;;;;;;2.93;1.37;;;10.40;88.90;;;;;;5013951;28;20907;-73
2020/12/21 11:37:07;;;;;;;2.80;1.50;;;10.50;89.30;;;;;;5013871;28;20518;-73
2020/12/21 11:39:33;;;;;;;2.60;1.77;;;10.50;89.10;;;;;;5014096;28;20439;-73
2020/12/21 11:41:59;;;;;;;8.73;2.00;;;10.50;89.00;;;;;;5014049;28;20463;-73
2020/12/21 11:44:26;;;;;;;4.83;1.97;;;10.50;88.70;;;;;;5014025;28;20428;-73
2020/12/21 11:46:53;;;;;;;7.90;2.30;;;10.60;88.70;;;;;;5014004;28;20479;-73
2020/12/21 11:49:19;;;;;;;5.77;1.87;;;10.60;88.60;;;;;;5013945;28;20447;-73
2020/12/21 11:51:45;;;;;;;4.80;2.47;;;10.60;88.30;;;;;;5013516;28;20973;-73
2020/12/21 11:54:11;;;;;;;3.40;2.23;;;10.60;88.40;;;;;;5014164;28;20458;-74
2020/12/21 11:56:37;;;;;;;2.87;1.50;;;10.60;88.50;;;;;;5013574;28;20424;-73
2020/12/21 11:59:03;;;;;;;3.20;1.90;;;10.60;88.60;;;;;;5013726;28;20509;-73
2020/12/21 12:01:30;;;;;;;4.90;1.60;;;10.60;88.70;;;;;;5013611;28;20467;-73
2020/12/21 12:03:57;;;;;;;3.00;1.70;;;10.50;88.80;;;;;;5013586;28;20451;-73
2020/12/21 12:06:26;;;;;;;7.57;2.10;;;10.60;89.40;;;;;;5013603;28;20482;-73
2020/12/21 12:08:53;;;;;;;6.83;2.33;;;10.60;89.70;;;;;;5013610;28;20451;-73
2020/12/21 12:11:23;;;;;;;4.57;2.10;;;10.50;89.80;;;;;;5013515;28;20875;-74
2020/12/21 12:13:50;;;;;;;6.20;2.20;;;10.50;90.10;;;;;;5013252;28;20933;-73
2020/12/21 12:16:24;;;;;;;4.37;1.80;;;10.50;90.30;;;;;;5013326;28;20968;-73
2020/12/21 12:18:50;;;;;;;5.87;2.30;;;10.50;90.40;;;;;;5016966;28;20593;-73
2020/12/21 12:21:24;;;;;;;5.70;2.00;;;10.40;90.60;;;;;;5017673;28;20489;-73
2020/12/21 12:23:50;;;;;;;4.50;2.17;;;10.40;90.80;;;;;;5017735;28;20497;-73
2020/12/21 12:26:17;;;;;;;4.80;2.30;;;10.40;90.90;;;;;;5017677;28;20582;-73
2020/12/21 12:28:44;;;;;;;5.40;2.20;;;10.40;90.90;;;;;;5017427;28;20574;-73
2020/12/21 12:31:17;;;;;;;5.67;2.40;;;10.40;91.00;;;;;;5017159;28;20467;-73
2020/12/21 12:33:43;;;;;;;5.83;2.40;;;10.30;91.10;;;;;;5017201;28;20438;-73
2020/12/21 12:36:09;;;;;;;5.17;2.20;;;10.30;91.40;;;;;;5017214;28;20455;-73
2020/12/21 12:38:36;;;;;;;6.37;2.33;;;10.30;91.50;;;;;;5017413;28;20505;-73
2020/12/21 12:41:03;;;;;;;3.43;2.13;;;10.30;91.50;;;;;;5017230;28;20478;-73
2020/12/21 12:43:29;;;;;;;4.13;2.07;;;10.30;91.70;;;;;;5017969;28;20447;-73
2020/12/21 12:45:55;;;;;;;3.83;2.30;;;10.20;91.70;;;;;;5017419;28;20479;-73
2020/12/21 12:48:21;;;;;;;6.37;2.60;;;10.20;91.70;;;;;;5017479;28;20443;-73
2020/12/21 12:50:47;;;;;;;6.03;2.37;;;10.30;91.80;;;;;;5017075;28;20981;-73
2020/12/21 12:53:14;;;;;;;3.00;1.87;;;10.30;91.70;;;;;;5017899;28;20458;-73